createdAt,value
2022-11-17T00:00:13.354Z,987.27
2022-11-17T00:02:46.587Z,987.22
2022-11-17T00:05:19.455Z,987.17
2022-11-17T00:07:52.453Z,987.14
2022-11-17T00:10:25.510Z,987.10
2022-11-17T00:12:58.469Z,987.05
2022-11-17T00:15:31.376Z,987.00
2022-11-17T00:18:04.254Z,986.97
2022-11-17T00:20:51.371Z,986.92
2022-11-17T00:23:24.377Z,986.86
2022-11-17T00:25:57.461Z,986.83
2022-11-17T00:31:04.491Z,986.74
2022-11-17T00:33:37.648Z,986.69
2022-11-17T00:36:10.506Z,986.66
2022-11-17T00:38:43.538Z,986.60
2022-11-17T00:41:16.531Z,986.54
2022-11-17T00:43:49.518Z,986.47
2022-11-17T00:46:22.463Z,986.41
2022-11-17T00:48:55.511Z,986.36
2022-11-17T00:51:28.302Z,986.30
2022-11-17T00:54:01.553Z,986.24
2022-11-17T00:56:34.532Z,986.19
2022-11-17T00:59:07.591Z,986.17
2022-11-17T01:01:41.540Z,986.15
2022-11-17T01:04:14.155Z,986.12
2022-11-17T01:06:47.531Z,986.08
2022-11-17T01:09:20.456Z,986.03
2022-11-17T01:14:43.680Z,985.93
2022-11-17T01:17:16.504Z,985.89
2022-11-17T01:19:49.587Z,985.84
2022-11-17T01:22:22.510Z,985.79
2022-11-17T01:24:55.509Z,985.76
2022-11-17T01:27:28.545Z,985.72
2022-11-17T01:30:01.711Z,985.69
2022-11-17T01:32:34.604Z,985.67
2022-11-17T01:35:07.602Z,985.63
2022-11-17T01:37:40.513Z,985.60
2022-11-17T01:40:13.592Z,985.56
2022-11-17T01:42:46.589Z,985.48
2022-11-17T01:45:19.739Z,985.44
2022-11-17T01:47:55.512Z,985.40
2022-11-17T01:50:28.605Z,985.32
2022-11-17T01:53:01.528Z,985.26
2022-11-17T01:55:34.645Z,985.19
2022-11-17T01:58:07.593Z,985.12
2022-11-17T02:00:40.524Z,985.05
2022-11-17T02:03:13.557Z,984.99
2022-11-17T02:05:46.667Z,984.93
2022-11-17T02:08:19.542Z,984.86
2022-11-17T02:10:52.631Z,984.79
2022-11-17T02:13:25.659Z,984.71
2022-11-17T02:15:58.625Z,984.63
2022-11-17T02:18:31.645Z,984.57
2022-11-17T02:21:04.663Z,984.52
2022-11-17T02:23:37.824Z,984.48
2022-11-17T02:26:10.656Z,984.43
2022-11-17T02:28:43.883Z,984.40
2022-11-17T02:31:17.598Z,984.36
2022-11-17T02:33:50.583Z,984.32
2022-11-17T02:36:23.672Z,984.29
2022-11-17T02:38:56.682Z,984.23
2022-11-17T02:41:29.713Z,984.18
2022-11-17T02:44:02.619Z,984.13
2022-11-17T02:46:35.792Z,984.08
2022-11-17T02:49:08.610Z,984.03
2022-11-17T02:51:41.681Z,983.98
2022-11-17T02:54:14.613Z,983.93
2022-11-17T02:56:47.698Z,983.89
2022-11-17T02:59:20.642Z,983.85
2022-11-17T03:01:53.930Z,983.82
2022-11-17T03:04:26.682Z,983.78
2022-11-17T03:06:59.807Z,983.73
2022-11-17T03:09:32.694Z,983.69
2022-11-17T03:12:05.597Z,983.66
2022-11-17T03:14:44.693Z,983.66
2022-11-17T03:17:17.750Z,983.68
2022-11-17T03:19:50.713Z,983.68
2022-11-17T03:22:23.756Z,983.68
2022-11-17T03:24:56.624Z,983.68
2022-11-17T03:27:29.765Z,983.69
2022-11-17T03:30:02.756Z,983.67
2022-11-17T03:32:35.884Z,983.69
2022-11-17T03:35:08.791Z,983.69
2022-11-17T03:37:41.657Z,983.67
2022-11-17T03:40:14.765Z,983.68
2022-11-17T03:42:47.777Z,983.70
2022-11-17T03:45:20.775Z,983.72
2022-11-17T03:47:53.898Z,983.72
2022-11-17T03:50:26.718Z,983.71
2022-11-17T03:52:59.852Z,983.71
2022-11-17T03:55:32.767Z,983.70
2022-11-17T03:58:05.819Z,983.70
2022-11-17T04:00:52.761Z,983.70
2022-11-17T04:03:25.900Z,983.70
2022-11-17T04:05:59.813Z,983.70
2022-11-17T04:08:32.913Z,983.70
2022-11-17T04:11:06.783Z,983.70
2022-11-17T04:13:39.831Z,983.67
2022-11-17T04:16:12.858Z,983.67
2022-11-17T04:18:59.809Z,983.66
2022-11-17T04:21:32.829Z,983.66
2022-11-17T04:24:05.754Z,983.65
2022-11-17T04:26:38.722Z,983.65
2022-11-17T04:29:11.864Z,983.64
2022-11-17T04:31:44.638Z,983.66
2022-11-17T04:34:17.796Z,983.68
2022-11-17T04:36:50.948Z,983.68
2022-11-17T04:39:24.713Z,983.70
2022-11-17T04:41:57.852Z,983.71
2022-11-17T04:44:30.778Z,983.70
2022-11-17T04:47:03.549Z,983.71
2022-11-17T04:49:36.853Z,983.70
2022-11-17T04:52:09.491Z,983.71
2022-11-17T04:54:42.694Z,983.68
2022-11-17T04:57:15.503Z,983.66
2022-11-17T04:59:48.555Z,983.64
2022-11-17T05:02:21.608Z,983.61
2022-11-17T05:04:54.769Z,983.59
2022-11-17T05:07:27.753Z,983.56
2022-11-17T05:10:00.687Z,983.55
2022-11-17T05:12:33.808Z,983.53
2022-11-17T05:15:07.541Z,983.52
2022-11-17T05:17:40.898Z,983.51
2022-11-17T05:20:14.043Z,983.51
2022-11-17T05:22:46.907Z,983.49
2022-11-17T05:25:19.840Z,983.45
2022-11-17T05:27:53.919Z,983.44
2022-11-17T05:30:26.934Z,983.42
2022-11-17T05:32:59.941Z,983.40
2022-11-17T05:35:32.674Z,983.39
2022-11-17T05:38:05.727Z,983.40
2022-11-17T05:40:38.551Z,983.39
2022-11-17T05:43:11.583Z,983.38
2022-11-17T05:45:44.645Z,983.38
2022-11-17T05:48:17.895Z,983.36
2022-11-17T05:50:50.964Z,983.35
2022-11-17T05:53:23.990Z,983.33
2022-11-17T05:55:56.891Z,983.32
2022-11-17T05:58:29.965Z,983.31
2022-11-17T06:01:02.898Z,983.27
2022-11-17T06:03:36.309Z,983.24
2022-11-17T06:06:08.777Z,983.25
2022-11-17T06:08:42.001Z,983.25
2022-11-17T06:11:15.023Z,983.26
2022-11-17T06:13:48.008Z,983.28
2022-11-17T06:16:20.919Z,983.27
2022-11-17T06:18:54.010Z,983.26
2022-11-17T06:21:37.927Z,983.25
2022-11-17T06:24:00.092Z,983.25
2022-11-17T06:26:33.901Z,983.27
2022-11-17T06:29:07.021Z,983.28
2022-11-17T06:31:39.892Z,983.31
2022-11-17T06:34:13.030Z,983.34
2022-11-17T06:36:46.018Z,983.37
2022-11-17T06:39:19.037Z,983.40
2022-11-17T06:41:55.850Z,983.43
2022-11-17T06:44:29.026Z,983.44
2022-11-17T06:47:02.038Z,983.45
2022-11-17T06:49:34.813Z,983.45
2022-11-17T06:52:08.183Z,983.44
2022-11-17T06:54:40.993Z,983.44
2022-11-17T06:57:19.900Z,983.44
2022-11-17T06:59:52.802Z,983.46
2022-11-17T07:02:26.022Z,983.49
2022-11-17T07:04:59.069Z,983.51
2022-11-17T07:07:32.227Z,983.50
2022-11-17T07:10:04.976Z,983.51
2022-11-17T07:12:38.114Z,983.51
2022-11-17T07:15:11.100Z,983.52
2022-11-17T07:17:43.796Z,983.54
2022-11-17T07:20:16.894Z,983.55
2022-11-17T07:22:50.231Z,983.54
2022-11-17T07:25:23.035Z,983.55
2022-11-17T07:27:56.133Z,983.53
2022-11-17T07:30:30.016Z,983.52
2022-11-17T07:33:03.034Z,983.50
2022-11-17T07:35:41.972Z,983.50
2022-11-17T07:38:15.148Z,983.49
2022-11-17T07:40:48.079Z,983.50
2022-11-17T07:43:21.131Z,983.49
2022-11-17T07:45:54.158Z,983.51
2022-11-17T07:48:27.098Z,983.52
2022-11-17T07:51:00.149Z,983.51
2022-11-17T07:53:33.437Z,983.52
2022-11-17T07:56:06.043Z,983.54
2022-11-17T07:58:39.609Z,983.57
2022-11-17T08:01:11.966Z,983.61
2022-11-17T08:03:45.055Z,983.69
2022-11-17T08:06:32.023Z,983.74
2022-11-17T08:09:05.188Z,983.78
2022-11-17T08:11:38.189Z,983.79
2022-11-17T08:14:11.093Z,983.80
2022-11-17T08:16:44.198Z,983.81
2022-11-17T08:19:17.057Z,983.82
2022-11-17T08:21:49.793Z,983.84
2022-11-17T08:24:23.148Z,983.86
2022-11-17T08:26:56.065Z,983.88
2022-11-17T08:29:29.232Z,983.88
2022-11-17T08:32:02.145Z,983.87
2022-11-17T08:34:35.226Z,983.85
2022-11-17T08:37:08.253Z,983.85
2022-11-17T08:39:41.122Z,983.85
2022-11-17T08:42:14.262Z,983.88
2022-11-17T08:44:47.241Z,983.91
2022-11-17T08:47:20.206Z,983.93
2022-11-17T08:49:53.263Z,983.92
2022-11-17T08:52:26.246Z,983.93
2022-11-17T08:54:59.368Z,983.92
2022-11-17T08:57:32.266Z,983.92
2022-11-17T09:00:05.207Z,983.94
2022-11-17T09:02:38.144Z,983.98
2022-11-17T09:05:11.202Z,984.00
2022-11-17T09:07:44.332Z,984.01
2022-11-17T09:10:17.238Z,984.01
2022-11-17T09:12:50.166Z,984.00
2022-11-17T09:15:23.151Z,984.02
2022-11-17T09:17:56.211Z,984.05
2022-11-17T09:20:29.290Z,984.11
2022-11-17T09:23:16.246Z,984.15
2022-11-17T09:25:49.321Z,984.19
2022-11-17T09:28:22.175Z,984.24
2022-11-17T09:30:55.236Z,984.29
2022-11-17T09:33:28.292Z,984.35
2022-11-17T09:36:01.175Z,984.38
2022-11-17T09:38:35.767Z,984.43
2022-11-17T09:41:08.295Z,984.47
2022-11-17T09:43:41.299Z,984.50
2022-11-17T09:46:14.199Z,984.54
2022-11-17T09:48:47.294Z,984.56
2022-11-17T09:51:20.250Z,984.57
2022-11-17T09:53:52.931Z,984.59
2022-11-17T09:56:26.113Z,984.61
2022-11-17T09:58:59.111Z,984.65
2022-11-17T10:01:32.100Z,984.67
2022-11-17T10:04:05.217Z,984.69
2022-11-17T10:06:38.091Z,984.72
2022-11-17T10:09:11.161Z,984.75
2022-11-17T10:11:44.332Z,984.77
2022-11-17T10:14:17.347Z,984.78
2022-11-17T10:16:50.311Z,984.77
2022-11-17T10:19:23.289Z,984.77
2022-11-17T10:21:56.240Z,984.77
2022-11-17T10:24:29.504Z,984.76
2022-11-17T10:27:03.435Z,984.74
2022-11-17T10:29:36.385Z,984.74
2022-11-17T10:32:09.274Z,984.73
2022-11-17T10:34:42.282Z,984.73
2022-11-17T10:37:29.262Z,984.71
2022-11-17T10:40:02.396Z,984.69
2022-11-17T10:42:35.367Z,984.68
2022-11-17T10:45:08.435Z,984.70
2022-11-17T10:47:41.342Z,984.72
2022-11-17T10:50:14.422Z,984.74
2022-11-17T10:52:47.333Z,984.77
2022-11-17T10:55:20.307Z,984.79
2022-11-17T10:57:53.371Z,984.81
2022-11-17T11:00:26.410Z,984.81
2022-11-17T11:03:13.300Z,984.79
2022-11-17T11:05:46.440Z,984.78
2022-11-17T11:08:19.416Z,984.77
2022-11-17T11:10:55.353Z,984.77
2022-11-17T11:13:28.466Z,984.77
2022-11-17T11:16:05.282Z,984.77
2022-11-17T11:18:38.463Z,984.79
2022-11-17T11:21:11.420Z,984.80
2022-11-17T11:23:44.442Z,984.81
2022-11-17T11:26:17.449Z,984.85
2022-11-17T11:28:54.679Z,984.87
2022-11-17T11:31:23.377Z,984.89
2022-11-17T11:33:56.379Z,984.93
2022-11-17T11:36:29.405Z,984.94
2022-11-17T11:39:02.467Z,984.96
2022-11-17T11:41:35.458Z,984.96
2022-11-17T11:44:08.493Z,984.96
2022-11-17T11:46:41.289Z,984.94
2022-11-17T11:49:14.489Z,984.93
2022-11-17T11:51:47.437Z,984.90
2022-11-17T11:54:20.408Z,984.87
2022-11-17T11:56:53.453Z,984.86
2022-11-17T11:59:26.529Z,984.86
2022-11-17T12:01:59.551Z,984.87
2022-11-17T12:04:32.389Z,984.87
2022-11-17T12:07:05.632Z,984.88
2022-11-17T12:09:38.477Z,984.89
2022-11-17T12:12:11.519Z,984.90
2022-11-17T12:14:44.463Z,984.90
2022-11-17T12:17:17.418Z,984.93
2022-11-17T12:19:50.459Z,984.96
2022-11-17T12:22:23.547Z,984.98
2022-11-17T12:24:56.554Z,984.98
2022-11-17T12:27:29.276Z,984.99
2022-11-17T12:30:02.642Z,984.99
2022-11-17T12:32:38.430Z,985.00
2022-11-17T12:35:11.331Z,985.00
2022-11-17T12:37:44.475Z,985.03
2022-11-17T12:40:17.332Z,985.06
2022-11-17T12:42:50.483Z,985.10
2022-11-17T12:45:23.509Z,985.13
2022-11-17T12:48:18.822Z,985.19
2022-11-17T12:50:29.461Z,985.25
2022-11-17T12:53:02.526Z,985.29
2022-11-17T12:55:35.583Z,985.32
2022-11-17T12:58:10.645Z,985.33
2022-11-17T13:00:41.615Z,985.34
2022-11-17T13:03:14.486Z,985.33
2022-11-17T13:08:37.647Z,985.28
2022-11-17T13:11:10.603Z,985.26
2022-11-17T13:13:46.895Z,985.22
2022-11-17T13:16:16.618Z,985.20
2022-11-17T13:18:49.230Z,985.20
2022-11-17T13:21:22.289Z,985.18
2022-11-17T13:23:55.338Z,985.17
2022-11-17T13:26:28.365Z,985.17
2022-11-17T13:29:01.672Z,985.15
2022-11-17T13:31:34.290Z,985.14
2022-11-17T13:34:07.432Z,985.13
2022-11-17T13:36:40.413Z,985.16
2022-11-17T13:39:28.090Z,985.16
2022-11-17T13:42:00.341Z,985.18
2022-11-17T13:44:33.332Z,985.22
2022-11-17T13:47:06.448Z,985.28
2022-11-17T13:49:39.523Z,985.30
2022-11-17T13:52:12.693Z,985.28
2022-11-17T13:54:45.437Z,985.18
2022-11-17T13:57:18.469Z,985.13
2022-11-17T13:59:51.452Z,985.14
2022-11-17T14:02:24.466Z,985.20
2022-11-17T14:04:57.696Z,985.22
2022-11-17T14:07:30.744Z,985.25
2022-11-17T14:10:05.925Z,985.27
2022-11-17T14:12:36.465Z,985.32
2022-11-17T14:15:09.520Z,985.34
2022-11-17T14:17:44.733Z,985.40
2022-11-17T14:20:17.676Z,985.45
2022-11-17T14:22:50.595Z,985.49
2022-11-17T14:25:23.716Z,985.49
2022-11-17T14:27:56.716Z,985.52
2022-11-17T14:30:31.433Z,985.58
2022-11-17T14:33:10.524Z,985.63
2022-11-17T14:35:37.643Z,985.66
2022-11-17T14:38:10.772Z,985.69
2022-11-17T14:40:43.538Z,985.69
2022-11-17T14:43:16.458Z,985.69
2022-11-17T14:45:49.841Z,985.67
2022-11-17T14:48:23.918Z,985.64
2022-11-17T14:50:56.674Z,985.60
2022-11-17T14:53:29.759Z,985.57
2022-11-17T14:56:02.755Z,985.55
2022-11-17T14:58:35.740Z,985.53
2022-11-17T15:01:08.703Z,985.52
2022-11-17T15:03:41.974Z,985.54
2022-11-17T15:06:19.407Z,985.58
2022-11-17T15:11:21.782Z,985.58
2022-11-17T15:13:54.745Z,985.58
2022-11-17T15:16:27.804Z,985.58
2022-11-17T15:19:00.830Z,985.58
2022-11-17T15:21:33.704Z,985.60
2022-11-17T15:24:06.534Z,985.61
2022-11-17T15:26:39.720Z,985.62
2022-11-17T15:29:12.470Z,985.62
2022-11-17T15:31:45.571Z,985.63
2022-11-17T15:34:20.492Z,985.62
2022-11-17T15:36:51.624Z,985.62
2022-11-17T15:39:24.511Z,985.64
2022-11-17T15:41:57.471Z,985.67
2022-11-17T15:44:30.543Z,985.74
2022-11-17T15:47:03.795Z,985.82
2022-11-17T15:49:36.829Z,985.89
2022-11-17T15:52:09.656Z,985.94
2022-11-17T15:54:42.609Z,985.98
2022-11-17T15:57:15.736Z,986.02
2022-11-17T15:59:48.858Z,986.05
2022-11-17T16:02:21.577Z,986.02
2022-11-17T16:04:54.766Z,985.99
2022-11-17T16:07:28.010Z,985.98
2022-11-17T16:10:00.491Z,985.96
2022-11-17T16:12:33.863Z,985.95
2022-11-17T16:15:06.756Z,985.93
2022-11-17T16:17:39.955Z,985.91
2022-11-17T16:20:13.593Z,985.87
2022-11-17T16:22:46.656Z,985.82
2022-11-17T16:25:19.865Z,985.85
2022-11-17T16:27:52.835Z,985.84
2022-11-17T16:30:25.924Z,985.86
2022-11-17T16:32:58.889Z,985.87
2022-11-17T16:35:31.860Z,985.88
2022-11-17T16:38:06.634Z,985.89
2022-11-17T16:40:39.544Z,985.86
2022-11-17T16:43:12.529Z,985.82
2022-11-17T16:45:45.629Z,985.80
2022-11-17T16:48:18.686Z,985.78
2022-11-17T16:50:51.780Z,985.74
2022-11-17T16:53:24.611Z,985.70
2022-11-17T16:55:58.763Z,985.66
2022-11-17T16:58:31.742Z,985.65
2022-11-17T17:01:09.656Z,985.66
2022-11-17T17:03:37.765Z,985.76
2022-11-17T17:06:10.587Z,985.90
2022-11-17T17:08:43.658Z,985.99
2022-11-17T17:11:16.585Z,986.03
2022-11-17T17:13:49.588Z,986.02
2022-11-17T17:16:22.737Z,986.02
2022-11-17T17:18:55.777Z,986.00
2022-11-17T17:21:28.795Z,986.00
2022-11-17T17:24:01.673Z,986.01
2022-11-17T17:26:34.790Z,986.00
2022-11-17T17:29:07.993Z,986.01
2022-11-17T17:31:40.782Z,986.02
2022-11-17T17:34:13.603Z,986.04
2022-11-17T17:36:46.660Z,986.07
2022-11-17T17:39:19.979Z,986.09
2022-11-17T17:41:52.950Z,986.11
2022-11-17T17:44:25.618Z,986.10
2022-11-17T17:46:58.824Z,986.10
2022-11-17T17:49:31.650Z,986.10
2022-11-17T17:52:08.441Z,986.11
2022-11-17T17:54:37.850Z,986.16
2022-11-17T17:57:10.668Z,986.20
2022-11-17T17:59:43.802Z,986.21
2022-11-17T18:02:16.676Z,986.20
2022-11-17T18:04:49.680Z,986.20
2022-11-17T18:07:22.861Z,986.19
2022-11-17T18:09:55.941Z,986.18
2022-11-17T18:12:28.663Z,986.14
2022-11-17T18:15:01.707Z,986.12
2022-11-17T18:17:34.706Z,986.11
2022-11-17T18:20:07.813Z,986.10
2022-11-17T18:22:41.021Z,986.11
2022-11-17T18:25:17.841Z,986.11
2022-11-17T18:27:49.970Z,986.09
2022-11-17T18:30:23.098Z,986.06
2022-11-17T18:33:09.743Z,986.07
2022-11-17T18:35:42.705Z,986.10
2022-11-17T18:38:15.726Z,986.12
2022-11-17T18:40:56.804Z,986.13
2022-11-17T18:43:25.118Z,986.13
2022-11-17T18:45:58.074Z,986.14
2022-11-17T18:48:30.792Z,986.14
2022-11-17T18:51:20.606Z,986.16
2022-11-17T18:53:36.768Z,986.17
2022-11-17T18:56:15.834Z,986.18
2022-11-17T18:58:48.925Z,986.18
2022-11-17T19:01:22.031Z,986.17
2022-11-17T19:03:54.803Z,986.15
2022-11-17T19:06:27.867Z,986.13
2022-11-17T19:09:00.840Z,986.12
2022-11-17T19:11:33.780Z,986.12
2022-11-17T19:14:06.828Z,986.13
2022-11-17T19:16:44.462Z,986.11
2022-11-17T19:19:13.871Z,986.09
2022-11-17T19:21:45.966Z,986.07
2022-11-17T19:24:18.858Z,986.08
2022-11-17T19:26:51.892Z,986.10
2022-11-17T19:29:24.933Z,986.13
2022-11-17T19:31:57.805Z,986.14
2022-11-17T19:34:30.782Z,986.15
2022-11-17T19:37:03.971Z,986.14
2022-11-17T19:39:37.086Z,986.15
2022-11-17T19:42:09.811Z,986.16
2022-11-17T19:44:42.792Z,986.18
2022-11-17T19:47:16.107Z,986.21
2022-11-17T19:49:48.840Z,986.23
2022-11-17T19:52:23.714Z,986.23
2022-11-17T19:54:57.097Z,986.26
2022-11-17T19:57:29.864Z,986.28
2022-11-17T20:00:03.084Z,986.30
2022-11-17T20:02:35.861Z,986.30
2022-11-17T20:05:10.988Z,986.28
2022-11-17T20:07:42.011Z,986.28
2022-11-17T20:10:14.880Z,986.27
2022-11-17T20:12:47.868Z,986.26
2022-11-17T20:15:34.059Z,986.30
2022-11-17T20:17:54.054Z,986.33
2022-11-17T20:20:27.026Z,986.37
2022-11-17T20:22:59.947Z,986.41
2022-11-17T20:25:33.270Z,986.44
2022-11-17T20:28:08.794Z,986.45
2022-11-17T20:30:41.869Z,986.45
2022-11-17T20:33:14.878Z,986.48
2022-11-17T20:35:47.926Z,986.51
2022-11-17T20:38:34.794Z,986.54
2022-11-17T20:41:10.809Z,986.57
2022-11-17T20:43:43.980Z,986.60
2022-11-17T20:46:17.257Z,986.63
2022-11-17T20:48:50.292Z,986.67
2022-11-17T20:51:23.222Z,986.69
2022-11-17T20:53:56.265Z,986.73
2022-11-17T20:56:29.245Z,986.73
2022-11-17T20:59:01.920Z,986.75
2022-11-17T21:01:35.436Z,986.77
2022-11-17T21:04:08.252Z,986.78
2022-11-17T21:06:40.931Z,986.80
2022-11-17T21:09:14.737Z,986.78
2022-11-17T21:11:47.359Z,986.77
2022-11-17T21:14:20.223Z,986.75
2022-11-17T21:16:53.318Z,986.73
2022-11-17T21:19:26.293Z,986.72
2022-11-17T21:21:59.350Z,986.74
2022-11-17T21:24:31.965Z,986.76
2022-11-17T21:27:05.254Z,986.81
2022-11-17T21:29:38.422Z,986.83
2022-11-17T21:32:10.990Z,986.84
2022-11-17T21:34:49.547Z,986.88
2022-11-17T21:37:20.024Z,986.90
2022-11-17T21:39:53.101Z,986.92
2022-11-17T21:42:26.090Z,986.94
2022-11-17T21:44:59.376Z,986.95
2022-11-17T21:47:32.285Z,986.96
2022-11-17T21:50:05.389Z,986.99
2022-11-17T21:52:38.288Z,987.04
2022-11-17T21:55:11.012Z,987.09
2022-11-17T21:57:44.181Z,987.14
2022-11-17T22:00:17.175Z,987.18
2022-11-17T22:02:50.144Z,987.20
2022-11-17T22:05:23.405Z,987.23
2022-11-17T22:07:56.309Z,987.25
2022-11-17T22:10:29.161Z,987.26
2022-11-17T22:13:02.367Z,987.26
2022-11-17T22:15:35.389Z,987.25
2022-11-17T22:18:08.391Z,987.25
2022-11-17T22:20:41.157Z,987.24
2022-11-17T22:23:14.300Z,987.23
2022-11-17T22:25:47.404Z,987.23
2022-11-17T22:28:20.484Z,987.24
2022-11-17T22:30:53.424Z,987.24
2022-11-17T22:33:26.374Z,987.25
2022-11-17T22:35:59.450Z,987.25
2022-11-17T22:38:32.124Z,987.24
2022-11-17T22:41:05.443Z,987.27
2022-11-17T22:43:38.473Z,987.27
2022-11-17T22:46:11.335Z,987.25
2022-11-17T22:48:44.492Z,987.21
2022-11-17T22:51:17.372Z,987.20
2022-11-17T22:53:52.291Z,987.20
2022-11-17T22:56:25.444Z,987.22
2022-11-17T22:58:59.970Z,987.24
2022-11-17T23:01:31.469Z,987.26
2022-11-17T23:04:04.494Z,987.27
2022-11-17T23:06:37.470Z,987.27
2022-11-17T23:09:10.399Z,987.29
2022-11-17T23:11:43.482Z,987.31
2022-11-17T23:14:16.415Z,987.32
2022-11-17T23:16:49.399Z,987.36
2022-11-17T23:19:22.380Z,987.40
2022-11-17T23:21:55.501Z,987.44
2022-11-17T23:24:28.431Z,987.44
2022-11-17T23:27:01.509Z,987.44
2022-11-17T23:29:34.473Z,987.44
2022-11-17T23:32:07.508Z,987.45
2022-11-17T23:34:40.430Z,987.46
2022-11-17T23:37:13.404Z,987.47
2022-11-17T23:39:46.518Z,987.47
2022-11-17T23:42:19.458Z,987.47
2022-11-17T23:44:52.609Z,987.49
2022-11-17T23:47:25.559Z,987.48
2022-11-17T23:49:58.478Z,987.48
2022-11-17T23:52:31.536Z,987.47
2022-11-17T23:55:04.521Z,987.48
2022-11-17T23:57:37.575Z,987.49
